createdAt,value
2016-05-25T00:00:05.203Z,1008.79
2016-05-25T00:01:05.722Z,1008.81
2016-05-25T00:02:05.271Z,1008.78
2016-05-25T00:03:05.305Z,1008.8
2016-05-25T00:04:05.324Z,1008.8
2016-05-25T00:05:05.374Z,1008.8
2016-05-25T00:06:05.408Z,1008.79
2016-05-25T00:07:05.425Z,1008.78
2016-05-25T00:08:05.460Z,1008.78
2016-05-25T00:09:05.494Z,1008.79
2016-05-25T00:10:05.543Z,1008.76
2016-05-25T00:11:05.561Z,1008.73
2016-05-25T00:12:05.595Z,1008.72
2016-05-25T00:13:05.629Z,1008.73
2016-05-25T00:14:05.663Z,1008.74
2016-05-25T00:15:05.696Z,1008.76
2016-05-25T00:16:05.716Z,1008.71
2016-05-25T00:17:05.749Z,1008.73
2016-05-25T00:18:05.784Z,1008.72
2016-05-25T00:19:05.817Z,1008.69
2016-05-25T00:20:05.851Z,1008.69
2016-05-25T00:21:05.885Z,1008.68
2016-05-25T00:22:05.919Z,1008.67
2016-05-25T00:23:05.953Z,1008.63
2016-05-25T00:24:05.987Z,1008.66
2016-05-25T00:25:06.021Z,1008.66
2016-05-25T00:26:06.055Z,1008.66
2016-05-25T00:27:06.089Z,1008.64
2016-05-25T00:28:06.123Z,1008.6
2016-05-25T00:29:06.157Z,1008.62
2016-05-25T00:30:06.175Z,1008.62
2016-05-25T00:31:06.209Z,1008.64
2016-05-25T00:32:06.258Z,1008.65
2016-05-25T00:33:06.277Z,1008.67
2016-05-25T00:34:06.311Z,1008.65
2016-05-25T00:35:06.344Z,1008.63
2016-05-25T00:36:06.378Z,1008.65
2016-05-25T00:37:06.412Z,1008.61
2016-05-25T00:38:06.447Z,1008.62
2016-05-25T00:39:06.481Z,1008.61
2016-05-25T00:40:06.514Z,1008.6
2016-05-25T00:41:06.549Z,1008.63
2016-05-25T00:42:06.582Z,1008.63
2016-05-25T00:43:06.616Z,1008.65
2016-05-25T00:44:06.634Z,1008.68
2016-05-25T00:45:06.684Z,1008.68
2016-05-25T00:46:06.702Z,1008.65
2016-05-25T00:47:06.737Z,1008.68
2016-05-25T00:48:06.771Z,1008.69
2016-05-25T00:49:06.804Z,1008.65
2016-05-25T00:50:06.838Z,1008.69
2016-05-25T00:51:06.872Z,1008.68
2016-05-25T00:52:06.906Z,1008.66
2016-05-25T00:53:06.940Z,1008.69
2016-05-25T00:54:06.973Z,1008.65
2016-05-25T00:55:07.009Z,1008.64
2016-05-25T00:56:07.042Z,1008.66
2016-05-25T00:57:07.075Z,1008.64
2016-05-25T00:58:07.094Z,1008.64
2016-05-25T00:59:07.128Z,1008.66
2016-05-25T01:00:07.162Z,1008.66
2016-05-25T01:01:07.195Z,1008.68
2016-05-25T01:02:07.230Z,1008.7
2016-05-25T01:03:07.264Z,1008.72
2016-05-25T01:04:07.297Z,1008.68
2016-05-25T01:05:07.331Z,1008.69
2016-05-25T01:06:07.365Z,1008.69
2016-05-25T01:07:07.399Z,1008.67
2016-05-25T01:08:07.433Z,1008.67
2016-05-25T01:09:07.467Z,1008.65
2016-05-25T01:10:07.486Z,1008.66
2016-05-25T01:11:07.535Z,1008.67
2016-05-25T01:12:07.569Z,1008.7
2016-05-25T01:13:07.587Z,1008.7
2016-05-25T01:14:07.621Z,1008.75
2016-05-25T01:15:07.655Z,1008.72
2016-05-25T01:16:07.954Z,1008.76
2016-05-25T01:17:07.738Z,1008.71
2016-05-25T01:18:07.757Z,1008.72
2016-05-25T01:19:07.791Z,1008.73
2016-05-25T01:20:07.825Z,1008.73
2016-05-25T01:21:07.859Z,1008.72
2016-05-25T01:22:07.893Z,1008.74
2016-05-25T01:23:07.926Z,1008.71
2016-05-25T01:24:07.961Z,1008.74
2016-05-25T01:25:07.979Z,1008.76
2016-05-25T01:26:08.012Z,1008.72
2016-05-25T01:27:08.048Z,1008.74
2016-05-25T01:28:08.097Z,1008.74
2016-05-25T01:29:08.115Z,1008.73
2016-05-25T01:30:08.148Z,1008.72
2016-05-25T01:31:08.183Z,1008.68
2016-05-25T01:32:08.217Z,1008.7
2016-05-25T01:33:08.250Z,1008.68
2016-05-25T01:34:08.284Z,1008.65
2016-05-25T01:35:08.319Z,1008.66
2016-05-25T01:36:08.352Z,1008.64
2016-05-25T01:37:08.386Z,1008.68
2016-05-25T01:38:08.419Z,1008.65
2016-05-25T01:39:08.454Z,1008.64
2016-05-25T01:40:08.489Z,1008.63
2016-05-25T01:41:08.507Z,1008.66
2016-05-25T01:42:08.572Z,1008.67
2016-05-25T01:43:08.590Z,1008.65
2016-05-25T01:44:08.608Z,1008.66
2016-05-25T01:45:08.674Z,1008.65
2016-05-25T01:46:08.691Z,1008.63
2016-05-25T01:47:08.741Z,1008.63
2016-05-25T01:48:08.744Z,1008.61
2016-05-25T01:49:08.779Z,1008.62
2016-05-25T01:50:08.812Z,1008.6
2016-05-25T01:51:08.845Z,1008.57
2016-05-25T01:52:08.880Z,1008.58
2016-05-25T01:53:08.914Z,1008.59
2016-05-25T01:54:08.932Z,1008.55
2016-05-25T01:55:08.997Z,1008.58
2016-05-25T01:56:09.015Z,1008.56
2016-05-25T01:57:09.034Z,1008.58
2016-05-25T01:58:09.067Z,1008.54
2016-05-25T01:59:09.101Z,1008.53
2016-05-25T02:00:09.136Z,1008.51
2016-05-25T02:01:09.482Z,1008.48
2016-05-25T02:02:09.204Z,1008.48
2016-05-25T02:03:09.237Z,1008.49
2016-05-25T02:04:09.272Z,1008.47
2016-05-25T02:05:09.305Z,1008.46
2016-05-25T02:06:09.339Z,1008.49
2016-05-25T02:07:09.373Z,1008.47
2016-05-25T02:08:09.407Z,1008.51
2016-05-25T02:09:09.425Z,1008.48
2016-05-25T02:10:09.460Z,1008.5
2016-05-25T02:11:09.494Z,1008.5
2016-05-25T02:12:09.544Z,1008.49
2016-05-25T02:13:09.561Z,1008.5
2016-05-25T02:14:09.596Z,1008.49
2016-05-25T02:15:09.629Z,1008.52
2016-05-25T02:16:09.663Z,1008.52
2016-05-25T02:17:09.696Z,1008.51
2016-05-25T02:18:09.731Z,1008.5
2016-05-25T02:19:09.765Z,1008.5
2016-05-25T02:20:09.799Z,1008.5
2016-05-25T02:21:09.832Z,1008.5
2016-05-25T02:22:09.851Z,1008.49
2016-05-25T02:23:09.901Z,1008.48
2016-05-25T02:24:09.919Z,1008.48
2016-05-25T02:25:09.953Z,1008.47
2016-05-25T02:26:09.987Z,1008.45
2016-05-25T02:27:10.020Z,1008.47
2016-05-25T02:28:10.054Z,1008.43
2016-05-25T02:29:10.088Z,1008.42
2016-05-25T02:30:10.122Z,1008.4
2016-05-25T02:31:10.703Z,1008.44
2016-05-25T02:32:10.190Z,1008.38
2016-05-25T02:33:10.225Z,1008.43
2016-05-25T02:34:10.259Z,1008.44
2016-05-25T02:35:10.292Z,1008.45
2016-05-25T02:36:10.326Z,1008.43
2016-05-25T02:37:10.344Z,1008.42
2016-05-25T02:38:10.378Z,1008.41
2016-05-25T02:39:10.412Z,1008.39
2016-05-25T02:40:10.447Z,1008.36
2016-05-25T02:41:10.480Z,1008.35
2016-05-25T02:42:10.514Z,1008.36
2016-05-25T02:43:10.549Z,1008.4
2016-05-25T02:44:10.582Z,1008.4
2016-05-25T02:45:10.616Z,1008.41
2016-05-25T02:46:10.650Z,1008.39
2016-05-25T02:47:10.699Z,1008.37
2016-05-25T02:48:10.718Z,1008.37
2016-05-25T02:49:10.735Z,1008.39
2016-05-25T02:50:10.785Z,1008.37
2016-05-25T02:51:10.805Z,1008.38
2016-05-25T02:52:10.837Z,1008.36
2016-05-25T02:53:10.872Z,1008.32
2016-05-25T02:54:10.921Z,1008.35
2016-05-25T02:55:10.940Z,1008.34
2016-05-25T02:56:10.990Z,1008.32
2016-05-25T02:57:11.007Z,1008.35
2016-05-25T02:58:11.042Z,1008.32
2016-05-25T02:59:11.075Z,1008.34
2016-05-25T03:00:11.109Z,1008.3
2016-05-25T03:01:11.143Z,1008.28
2016-05-25T03:02:11.178Z,1008.26
2016-05-25T03:03:11.227Z,1008.28
2016-05-25T03:04:11.230Z,1008.32
2016-05-25T03:05:11.325Z,1008.27
2016-05-25T03:06:11.298Z,1008.32
2016-05-25T03:07:11.331Z,1008.3
2016-05-25T03:08:11.366Z,1008.29
2016-05-25T03:09:11.399Z,1008.26
2016-05-25T03:10:11.433Z,1008.27
2016-05-25T03:11:11.466Z,1008.28
2016-05-25T03:12:11.502Z,1008.28
2016-05-25T03:13:11.519Z,1008.32
2016-05-25T03:14:11.553Z,1008.32
2016-05-25T03:15:11.602Z,1008.29
2016-05-25T03:16:11.621Z,1008.29
2016-05-25T03:17:11.671Z,1008.3
2016-05-25T03:18:11.705Z,1008.27
2016-05-25T03:19:11.723Z,1008.26
2016-05-25T03:20:11.757Z,1008.25
2016-05-25T03:21:11.791Z,1008.28
2016-05-25T03:22:11.825Z,1008.27
2016-05-25T03:23:11.859Z,1008.32
2016-05-25T03:24:11.893Z,1008.3
2016-05-25T03:25:11.927Z,1008.28
2016-05-25T03:26:11.946Z,1008.29
2016-05-25T03:27:11.979Z,1008.25
2016-05-25T03:28:12.013Z,1008.22
2016-05-25T03:29:12.047Z,1008.22
2016-05-25T03:30:12.081Z,1008.2
2016-05-25T03:31:12.412Z,1008.22
2016-05-25T03:32:12.336Z,1008.2
2016-05-25T03:33:12.183Z,1008.2
2016-05-25T03:34:12.217Z,1008.21
2016-05-25T03:35:12.250Z,1008.24
2016-05-25T03:36:12.284Z,1008.24
2016-05-25T03:37:12.319Z,1008.24
2016-05-25T03:38:12.352Z,1008.25
2016-05-25T03:39:12.370Z,1008.23
2016-05-25T03:40:12.405Z,1008.25
2016-05-25T03:41:12.438Z,1008.29
2016-05-25T03:42:12.472Z,1008.27
2016-05-25T03:44:12.540Z,1008.3
2016-05-25T03:45:12.574Z,1008.35
2016-05-25T03:46:12.608Z,1008.35
2016-05-25T03:47:12.642Z,1008.36
2016-05-25T03:48:12.661Z,1008.34
2016-05-25T03:49:12.694Z,1008.33
2016-05-25T03:50:12.729Z,1008.35
2016-05-25T03:51:12.762Z,1008.39
2016-05-25T03:52:12.796Z,1008.37
2016-05-25T03:53:12.830Z,1008.37
2016-05-25T03:54:12.864Z,1008.36
2016-05-25T03:55:12.899Z,1008.36
2016-05-25T03:56:12.932Z,1008.33
2016-05-25T03:57:12.966Z,1008.32
2016-05-25T03:58:13.001Z,1008.27
2016-05-25T03:59:13.019Z,1008.28
2016-05-25T04:00:13.068Z,1008.27
2016-05-25T04:01:13.086Z,1008.25
2016-05-25T04:02:13.121Z,1008.21
2016-05-25T04:03:13.154Z,1008.22
2016-05-25T04:04:13.188Z,1008.24
2016-05-25T04:05:13.223Z,1008.24
2016-05-25T04:06:13.256Z,1008.23
2016-05-25T04:07:13.289Z,1008.24
2016-05-25T04:08:13.324Z,1008.2
2016-05-25T04:09:13.358Z,1008.21
2016-05-25T04:10:13.392Z,1008.2
2016-05-25T04:11:13.425Z,1008.16
2016-05-25T04:12:13.459Z,1008.15
2016-05-25T04:13:13.478Z,1008.15
2016-05-25T04:14:13.528Z,1008.16
2016-05-25T04:15:13.546Z,1008.15
2016-05-25T04:16:13.580Z,1008.21
2016-05-25T04:17:14.004Z,1008.19
2016-05-25T04:18:13.647Z,1008.19
2016-05-25T04:19:13.705Z,1008.24
2016-05-25T04:20:13.778Z,1008.15
2016-05-25T04:21:13.820Z,1008.19
2016-05-25T04:22:13.878Z,1008.16
2016-05-25T04:23:13.936Z,1008.18
2016-05-25T04:24:13.978Z,1008.17
2016-05-25T04:25:14.005Z,1008.2
2016-05-25T04:26:14.048Z,1008.19
2016-05-25T04:27:14.090Z,1008.22
2016-05-25T04:28:14.132Z,1008.19
2016-05-25T04:29:14.169Z,1008.16
2016-05-25T04:30:14.207Z,1008.16
2016-05-25T04:31:14.681Z,1008.14
2016-05-25T04:32:14.280Z,1008.18
2016-05-25T04:33:14.317Z,1008.15
2016-05-25T04:34:14.353Z,1008.11
2016-05-25T04:35:14.387Z,1008.15
2016-05-25T04:36:14.423Z,1008.1
2016-05-25T04:37:14.457Z,1008.1
2016-05-25T04:38:14.478Z,1008.08
2016-05-25T04:39:14.512Z,1008.1
2016-05-25T04:40:14.546Z,1008.08
2016-05-25T04:41:14.581Z,1008.11
2016-05-25T04:42:14.615Z,1008.11
2016-05-25T04:43:14.648Z,1008.06
2016-05-25T04:44:14.684Z,1008.11
2016-05-25T04:45:14.717Z,1008.06
2016-05-25T04:46:14.767Z,1008.05
2016-05-25T04:47:14.785Z,1008.05
2016-05-25T04:48:14.819Z,1008.03
2016-05-25T04:49:14.853Z,1008.04
2016-05-25T04:50:14.871Z,1008.04
2016-05-25T04:51:14.905Z,1008
2016-05-25T04:52:14.939Z,1008.04
2016-05-25T04:53:14.972Z,1008.03
2016-05-25T04:54:15.007Z,1008.05
2016-05-25T04:55:15.056Z,1008.03
2016-05-25T04:56:15.074Z,1008.03
2016-05-25T04:57:15.108Z,1008.01
2016-05-25T04:58:15.142Z,1008.06
2016-05-25T04:59:15.177Z,1008.04
2016-05-25T05:00:15.211Z,1008.07
2016-05-25T05:01:15.260Z,1008.04
2016-05-25T05:02:15.278Z,1008.06
2016-05-25T05:03:15.297Z,1008.05
2016-05-25T05:04:15.330Z,1008.1
2016-05-25T05:05:15.365Z,1008.14
2016-05-25T05:06:15.398Z,1008.1
2016-05-25T05:07:15.432Z,1008.11
2016-05-25T05:08:15.466Z,1008.14
2016-05-25T05:09:15.500Z,1008.15
2016-05-25T05:10:15.534Z,1008.16
2016-05-25T05:11:15.568Z,1008.16
2016-05-25T05:12:15.602Z,1008.13
2016-05-25T05:13:15.636Z,1008.17
2016-05-25T05:14:15.670Z,1008.18
2016-05-25T05:15:15.704Z,1008.16
2016-05-25T05:16:15.738Z,1008.11
2016-05-25T05:17:15.772Z,1008.12
2016-05-25T05:18:15.790Z,1008.12
2016-05-25T05:19:15.823Z,1008.11
2016-05-25T05:20:15.859Z,1008.14
2016-05-25T05:21:15.892Z,1008.1
2016-05-25T05:22:15.926Z,1008.14
2016-05-25T05:23:15.959Z,1008.18
2016-05-25T05:24:15.994Z,1008.19
2016-05-25T05:25:16.028Z,1008.16
2016-05-25T05:26:16.062Z,1008.13
2016-05-25T05:27:16.095Z,1008.16
2016-05-25T05:28:16.130Z,1008.17
2016-05-25T05:29:16.163Z,1008.19
2016-05-25T05:30:16.197Z,1008.15
2016-05-25T05:31:16.231Z,1008.17
2016-05-25T05:32:16.266Z,1008.17
2016-05-25T05:33:16.283Z,1008.18
2016-05-25T05:34:16.333Z,1008.15
2016-05-25T05:35:16.367Z,1008.15
2016-05-25T05:36:16.386Z,1008.15
2016-05-25T05:37:16.419Z,1008.14
2016-05-25T05:38:16.454Z,1008.18
2016-05-25T05:39:16.487Z,1008.18
2016-05-25T05:40:16.521Z,1008.21
2016-05-25T05:41:16.555Z,1008.28
2016-05-25T05:42:16.589Z,1008.27
2016-05-25T05:43:16.623Z,1008.3
2016-05-25T05:44:16.656Z,1008.32
2016-05-25T05:45:16.691Z,1008.31
2016-05-25T05:46:16.725Z,1008.28
2016-05-25T05:47:16.759Z,1008.27
2016-05-25T05:48:16.793Z,1008.28
2016-05-25T05:49:16.826Z,1008.29
2016-05-25T05:50:16.861Z,1008.32
2016-05-25T05:51:16.895Z,1008.32
2016-05-25T05:52:16.928Z,1008.36
2016-05-25T05:53:16.947Z,1008.34
2016-05-25T05:54:16.980Z,1008.37
2016-05-25T05:55:17.031Z,1008.39
2016-05-25T05:56:17.048Z,1008.37
2016-05-25T05:57:17.083Z,1008.42
2016-05-25T05:58:17.133Z,1008.42
2016-05-25T05:59:17.150Z,1008.4
2016-05-25T06:00:17.184Z,1008.38
2016-05-25T06:01:17.218Z,1008.43
2016-05-25T06:02:17.268Z,1008.44
2016-05-25T06:03:17.317Z,1008.45
2016-05-25T06:04:17.319Z,1008.46
2016-05-25T06:05:17.354Z,1008.49
2016-05-25T06:06:17.388Z,1008.51
2016-05-25T06:07:17.421Z,1008.45
2016-05-25T06:08:17.456Z,1008.46
2016-05-25T06:09:17.505Z,1008.46
2016-05-25T06:10:17.524Z,1008.48
2016-05-25T06:11:17.558Z,1008.46
2016-05-25T06:12:17.591Z,1008.48
2016-05-25T06:13:17.626Z,1008.44
2016-05-25T06:14:17.659Z,1008.47
2016-05-25T06:15:17.693Z,1008.47
2016-05-25T06:16:17.727Z,1008.41
2016-05-25T06:17:17.761Z,1008.44
2016-05-25T06:18:17.796Z,1008.45
2016-05-25T06:19:17.829Z,1008.43
2016-05-25T06:20:17.862Z,1008.43
2016-05-25T06:21:17.898Z,1008.47
2016-05-25T06:22:17.931Z,1008.48
2016-05-25T06:23:17.965Z,1008.48
2016-05-25T06:24:17.999Z,1008.52
2016-05-25T06:25:18.033Z,1008.51
2016-05-25T06:26:18.067Z,1008.57
2016-05-25T06:27:18.085Z,1008.53
2016-05-25T06:28:18.134Z,1008.56
2016-05-25T06:29:18.168Z,1008.61
2016-05-25T06:30:18.202Z,1008.57
2016-05-25T06:31:18.236Z,1008.57
2016-05-25T06:32:18.270Z,1008.58
2016-05-25T06:33:18.305Z,1008.55
2016-05-25T06:34:18.339Z,1008.55
2016-05-25T06:35:18.372Z,1008.53
2016-05-25T06:36:18.406Z,1008.53
2016-05-25T06:37:18.441Z,1008.53
2016-05-25T06:38:19.896Z,1008.62
2016-05-25T06:39:18.508Z,1008.57
2016-05-25T06:40:18.541Z,1008.58
2016-05-25T06:41:18.561Z,1008.59
2016-05-25T06:42:18.610Z,1008.62
2016-05-25T06:43:18.644Z,1008.6
2016-05-25T06:44:18.662Z,1008.59
2016-05-25T06:45:18.727Z,1008.63
2016-05-25T06:46:18.964Z,1008.61
2016-05-25T06:47:18.779Z,1008.65
2016-05-25T06:48:20.907Z,1008.65
2016-05-25T06:49:18.847Z,1008.64
2016-05-25T06:50:18.882Z,1008.66
2016-05-25T06:51:18.915Z,1008.68
2016-05-25T06:52:18.948Z,1008.66
2016-05-25T06:53:18.984Z,1008.69
2016-05-25T06:54:19.017Z,1008.7
2016-05-25T06:55:19.036Z,1008.67
2016-05-25T06:56:19.085Z,1008.69
2016-05-25T06:57:19.119Z,1008.7
2016-05-25T06:58:20.200Z,1008.71
2016-05-25T06:59:19.186Z,1008.71
2016-05-25T07:00:19.205Z,1008.74
2016-05-25T07:01:19.255Z,1008.75
2016-05-25T07:02:19.289Z,1008.72
2016-05-25T07:03:21.572Z,1008.74
2016-05-25T07:04:19.356Z,1008.75
2016-05-25T07:05:19.391Z,1008.73
2016-05-25T07:06:19.424Z,1008.75
2016-05-25T07:07:19.458Z,1008.78
2016-05-25T07:08:19.492Z,1008.75
2016-05-25T07:09:19.526Z,1008.73
2016-05-25T07:10:19.560Z,1008.73
2016-05-25T07:11:19.594Z,1008.74
2016-05-25T07:12:19.627Z,1008.67
2016-05-25T07:13:22.927Z,1008.68
2016-05-25T07:14:19.696Z,1008.72
2016-05-25T07:15:19.729Z,1008.71
2016-05-25T07:16:19.763Z,1008.74
2016-05-25T07:17:19.798Z,1008.73
2016-05-25T07:18:20.410Z,1008.74
2016-05-25T07:19:19.865Z,1008.73
2016-05-25T07:20:19.899Z,1008.74
2016-05-25T07:21:19.934Z,1008.75
2016-05-25T07:22:19.968Z,1008.75
2016-05-25T07:23:20.814Z,1008.77
2016-05-25T07:24:20.035Z,1008.76
2016-05-25T07:25:20.069Z,1008.74
2016-05-25T07:26:20.103Z,1008.79
2016-05-25T07:27:20.137Z,1008.81
2016-05-25T07:28:22.045Z,1008.79
2016-05-25T07:29:20.205Z,1008.79
2016-05-25T07:30:20.239Z,1008.74
2016-05-25T07:31:20.273Z,1008.75
2016-05-25T07:32:20.994Z,1008.75
2016-05-25T07:33:21.841Z,1008.72
2016-05-25T07:34:20.375Z,1008.74
2016-05-25T07:35:20.408Z,1008.76
2016-05-25T07:36:20.443Z,1008.74
2016-05-25T07:37:20.477Z,1008.74
2016-05-25T07:38:21.308Z,1008.75
2016-05-25T07:39:20.560Z,1008.78
2016-05-25T07:40:20.610Z,1008.78
2016-05-25T07:41:20.612Z,1008.74
2016-05-25T07:42:20.662Z,1008.76
2016-05-25T07:43:20.696Z,1008.74
2016-05-25T07:44:20.730Z,1008.73
2016-05-25T07:45:20.748Z,1008.74
2016-05-25T07:46:20.798Z,1008.72
2016-05-25T07:47:22.629Z,1008.78
2016-05-25T07:48:21.381Z,1008.72
2016-05-25T07:49:20.900Z,1008.7
2016-05-25T07:50:20.934Z,1008.7
2016-05-25T07:51:20.968Z,1008.68
2016-05-25T07:52:21.001Z,1008.72
2016-05-25T07:53:21.863Z,1008.75
2016-05-25T07:54:21.070Z,1008.71
2016-05-25T07:55:21.104Z,1008.72
2016-05-25T07:56:21.137Z,1008.72
2016-05-25T07:57:21.170Z,1008.71
2016-05-25T07:58:21.206Z,1008.74
2016-05-25T07:59:21.239Z,1008.76
2016-05-25T08:00:21.272Z,1008.7
2016-05-25T08:01:21.509Z,1008.74
2016-05-25T08:02:21.903Z,1008.76
2016-05-25T08:03:21.375Z,1008.81
2016-05-25T08:04:21.409Z,1008.83
2016-05-25T08:05:21.442Z,1008.87
2016-05-25T08:06:21.477Z,1008.84
2016-05-25T08:07:21.511Z,1008.87
2016-05-25T08:08:21.544Z,1008.92
2016-05-25T08:09:21.578Z,1008.89
2016-05-25T08:10:21.613Z,1008.91
2016-05-25T08:11:21.647Z,1008.9
2016-05-25T08:12:21.696Z,1008.88
2016-05-25T08:13:23.432Z,1008.87
2016-05-25T08:14:21.748Z,1008.86
2016-05-25T08:15:21.797Z,1008.9
2016-05-25T08:16:21.832Z,1008.88
2016-05-25T08:17:21.882Z,1008.89
2016-05-25T08:18:23.993Z,1008.88
2016-05-25T08:19:21.933Z,1008.87
2016-05-25T08:20:21.968Z,1008.89
2016-05-25T08:21:22.001Z,1008.88
2016-05-25T08:22:22.051Z,1008.85
2016-05-25T08:23:22.069Z,1008.88
2016-05-25T08:24:22.103Z,1008.86
2016-05-25T08:25:22.137Z,1008.9
2016-05-25T08:26:22.170Z,1008.91
2016-05-25T08:27:22.204Z,1008.87
2016-05-25T08:28:22.239Z,1008.92
2016-05-25T08:29:22.273Z,1008.91
2016-05-25T08:30:22.306Z,1008.93
2016-05-25T08:31:22.340Z,1008.91
2016-05-25T08:32:22.484Z,1008.88
2016-05-25T08:33:22.425Z,1008.9
2016-05-25T08:34:22.458Z,1008.92
2016-05-25T08:35:22.492Z,1008.89
2016-05-25T08:36:22.525Z,1008.88
2016-05-25T08:37:22.561Z,1008.91
2016-05-25T08:38:22.594Z,1008.9
2016-05-25T08:39:22.628Z,1008.89
2016-05-25T08:40:22.661Z,1008.87
2016-05-25T08:41:22.696Z,1008.87
2016-05-25T08:42:22.730Z,1008.85
2016-05-25T08:43:22.763Z,1008.89
2016-05-25T08:44:22.797Z,1008.89
2016-05-25T08:45:22.832Z,1008.9
2016-05-25T08:46:22.880Z,1008.9
2016-05-25T08:47:22.899Z,1008.86
2016-05-25T08:48:22.933Z,1008.88
2016-05-25T08:49:22.982Z,1008.92
2016-05-25T08:50:23.016Z,1008.91
2016-05-25T08:51:23.051Z,1008.91
2016-05-25T08:52:23.085Z,1008.92
2016-05-25T08:53:23.103Z,1008.87
2016-05-25T08:54:23.137Z,1008.9
2016-05-25T08:55:23.171Z,1008.91
2016-05-25T08:56:23.220Z,1008.89
2016-05-25T08:57:23.254Z,1008.9
2016-05-25T08:58:23.288Z,1008.9
2016-05-25T08:59:23.323Z,1008.9
2016-05-25T09:00:23.356Z,1008.9
2016-05-25T09:01:23.390Z,1008.94
2016-05-25T09:02:23.424Z,1008.95
2016-05-25T09:03:23.458Z,1008.96
2016-05-25T09:04:23.491Z,1008.97
2016-05-25T09:05:23.526Z,1008.98
2016-05-25T09:06:23.559Z,1008.89
2016-05-25T09:07:23.594Z,1008.93
2016-05-25T09:08:23.628Z,1008.94
2016-05-25T09:09:23.661Z,1008.94
2016-05-25T09:10:23.695Z,1008.95
2016-05-25T09:11:23.730Z,1008.93
2016-05-25T09:12:23.764Z,1008.96
2016-05-25T09:13:23.797Z,1008.94
2016-05-25T09:14:23.831Z,1008.97
2016-05-25T09:15:23.866Z,1008.98
2016-05-25T09:16:23.900Z,1008.94
2016-05-25T09:17:23.948Z,1008.94
2016-05-25T09:18:23.983Z,1008.95
2016-05-25T09:19:24.016Z,1008.96
2016-05-25T09:20:24.051Z,1008.97
2016-05-25T09:21:24.085Z,1008.96
2016-05-25T09:22:25.432Z,1008.98
2016-05-25T09:23:24.184Z,1008.98
2016-05-25T09:24:24.187Z,1008.98
2016-05-25T09:25:24.220Z,1009.01
2016-05-25T09:26:24.270Z,1008.98
2016-05-25T09:27:26.319Z,1009
2016-05-25T09:28:24.322Z,1008.95
2016-05-25T09:29:24.356Z,1008.92
2016-05-25T09:30:24.390Z,1008.94
2016-05-25T09:31:24.424Z,1008.9
2016-05-25T09:32:24.458Z,1008.91
2016-05-25T09:33:24.492Z,1008.9
2016-05-25T09:34:24.526Z,1008.92
2016-05-25T09:35:24.559Z,1008.89
2016-05-25T09:36:24.609Z,1008.91
2016-05-25T09:37:24.642Z,1008.88
2016-05-25T09:38:24.678Z,1008.9
2016-05-25T09:39:24.711Z,1008.92
2016-05-25T09:40:24.744Z,1008.93
2016-05-25T09:41:24.779Z,1008.92
2016-05-25T09:42:24.814Z,1008.92
2016-05-25T09:43:24.847Z,1008.9
2016-05-25T09:44:24.880Z,1008.92
2016-05-25T09:45:24.914Z,1008.96
2016-05-25T09:46:24.949Z,1008.95
2016-05-25T09:47:25.780Z,1008.96
2016-05-25T09:48:25.032Z,1008.95
2016-05-25T09:49:25.050Z,1008.99
2016-05-25T09:50:25.100Z,1008.99
2016-05-25T09:51:25.134Z,1009.04
2016-05-25T09:52:27.137Z,1008.98
2016-05-25T09:53:25.202Z,1009.01
2016-05-25T09:54:25.235Z,1008.96
2016-05-25T09:55:25.270Z,1009
2016-05-25T09:56:25.303Z,1008.97
2016-05-25T09:57:25.338Z,1009.02
2016-05-25T09:58:25.371Z,1008.99
2016-05-25T09:59:25.420Z,1009
2016-05-25T10:00:25.454Z,1009.04
2016-05-25T10:01:25.489Z,1009.05
2016-05-25T10:02:25.523Z,1009.04
2016-05-25T10:03:25.556Z,1009.04
2016-05-25T10:04:25.590Z,1009.04
2016-05-25T10:05:25.625Z,1008.99
2016-05-25T10:06:25.674Z,1009.03
2016-05-25T10:07:27.302Z,1009.03
2016-05-25T10:08:25.726Z,1009.06
2016-05-25T10:09:25.776Z,1009.06
2016-05-25T10:10:25.810Z,1009.05
2016-05-25T10:11:25.844Z,1009.08
2016-05-25T10:12:25.878Z,1009.03
2016-05-25T10:13:25.911Z,1009.08
2016-05-25T10:14:25.946Z,1009.07
2016-05-25T10:15:25.980Z,1009
2016-05-25T10:16:26.030Z,1009
2016-05-25T10:17:26.064Z,1009.01
2016-05-25T10:18:26.097Z,1009
2016-05-25T10:19:26.130Z,1008.96
2016-05-25T10:20:26.165Z,1008.92
2016-05-25T10:21:26.199Z,1008.93
2016-05-25T10:22:26.233Z,1008.9
2016-05-25T10:23:26.266Z,1008.87
2016-05-25T10:24:26.302Z,1008.93
2016-05-25T10:25:26.351Z,1008.87
2016-05-25T10:26:26.384Z,1008.89
2016-05-25T10:27:26.419Z,1008.85
2016-05-25T10:28:26.452Z,1008.83
2016-05-25T10:29:26.501Z,1008.88
2016-05-25T10:30:26.520Z,1008.86
2016-05-25T10:31:26.570Z,1008.85
2016-05-25T10:32:26.776Z,1008.85
2016-05-25T10:33:26.637Z,1008.89
2016-05-25T10:34:26.671Z,1008.88
2016-05-25T10:35:26.721Z,1008.86
2016-05-25T10:36:26.755Z,1008.85
2016-05-25T10:37:26.789Z,1008.84
2016-05-25T10:38:26.823Z,1008.85
2016-05-25T10:39:26.856Z,1008.83
2016-05-25T10:40:26.906Z,1008.78
2016-05-25T10:41:26.940Z,1008.82
2016-05-25T10:42:26.975Z,1008.81
2016-05-25T10:43:27.008Z,1008.79
2016-05-25T10:44:27.041Z,1008.77
2016-05-25T10:45:27.075Z,1008.77
2016-05-25T10:46:27.125Z,1008.77
2016-05-25T10:47:27.160Z,1008.83
2016-05-25T10:48:27.194Z,1008.79
2016-05-25T10:49:27.227Z,1008.86
2016-05-25T10:50:27.261Z,1008.84
2016-05-25T10:51:27.296Z,1008.84
2016-05-25T10:52:27.345Z,1008.85
2016-05-25T10:53:27.379Z,1008.86
2016-05-25T10:54:27.413Z,1008.83
2016-05-25T10:55:27.463Z,1008.83
2016-05-25T10:56:27.480Z,1008.85
2016-05-25T10:57:27.530Z,1008.82
2016-05-25T10:58:27.564Z,1008.84
2016-05-25T10:59:27.598Z,1008.85
2016-05-25T11:00:27.632Z,1008.87
2016-05-25T11:01:27.665Z,1008.86
2016-05-25T11:02:27.701Z,1008.87
2016-05-25T11:03:27.749Z,1008.85
2016-05-25T11:04:27.784Z,1008.8
2016-05-25T11:05:27.818Z,1008.84
2016-05-25T11:06:27.867Z,1008.84
2016-05-25T11:07:27.885Z,1008.82
2016-05-25T11:08:27.934Z,1008.83
2016-05-25T11:09:27.969Z,1008.82
2016-05-25T11:10:28.003Z,1008.83
2016-05-25T11:11:28.053Z,1008.84
2016-05-25T11:12:28.086Z,1008.85
2016-05-25T11:13:28.119Z,1008.86
2016-05-25T11:14:28.153Z,1008.84
2016-05-25T11:15:28.188Z,1008.86
2016-05-25T11:16:28.222Z,1008.85
2016-05-25T11:17:28.272Z,1008.85
2016-05-25T11:18:28.306Z,1008.89
2016-05-25T11:19:28.339Z,1008.86
2016-05-25T11:20:28.373Z,1008.86
2016-05-25T11:21:28.423Z,1008.86
2016-05-25T11:22:28.457Z,1008.88
2016-05-25T11:23:28.491Z,1008.84
2016-05-25T11:24:28.524Z,1008.85
2016-05-25T11:25:28.575Z,1008.85
2016-05-25T11:26:28.608Z,1008.81
2016-05-25T11:27:28.642Z,1008.81
2016-05-25T11:28:28.676Z,1008.83
2016-05-25T11:29:28.710Z,1008.81
2016-05-25T11:30:28.743Z,1008.81
2016-05-25T11:31:28.793Z,1008.81
2016-05-25T11:32:28.827Z,1008.84
2016-05-25T11:33:28.862Z,1008.83
2016-05-25T11:34:28.896Z,1008.84
2016-05-25T11:35:28.945Z,1008.85
2016-05-25T11:36:28.978Z,1008.84
2016-05-25T11:37:29.029Z,1008.89
2016-05-25T11:38:29.047Z,1008.87
2016-05-25T11:39:29.081Z,1008.88
2016-05-25T11:40:29.131Z,1008.85
2016-05-25T11:41:29.164Z,1008.89
2016-05-25T11:42:29.198Z,1008.9
2016-05-25T11:43:29.247Z,1008.85
2016-05-25T11:44:29.266Z,1008.88
2016-05-25T11:45:29.316Z,1008.89
2016-05-25T11:46:29.350Z,1008.9
2016-05-25T11:47:29.384Z,1008.9
2016-05-25T11:48:29.417Z,1008.89
2016-05-25T11:49:29.467Z,1008.9
2016-05-25T11:50:29.500Z,1008.86
2016-05-25T11:51:29.535Z,1008.89
2016-05-25T11:52:29.569Z,1008.9
2016-05-25T11:53:29.602Z,1008.84
2016-05-25T11:54:29.636Z,1008.85
2016-05-25T11:55:29.671Z,1008.85
2016-05-25T11:56:29.720Z,1008.85
2016-05-25T11:57:29.754Z,1008.87
2016-05-25T11:58:29.788Z,1008.86
2016-05-25T11:59:29.822Z,1008.83
2016-05-25T12:00:29.856Z,1008.82
2016-05-25T12:01:29.905Z,1008.83
2016-05-25T12:02:30.299Z,1008.81
2016-05-25T12:03:29.974Z,1008.81
2016-05-25T12:04:30.007Z,1008.81
2016-05-25T12:05:30.040Z,1008.8
2016-05-25T12:06:30.090Z,1008.79
2016-05-25T12:07:30.125Z,1008.82
2016-05-25T12:08:30.159Z,1008.79
2016-05-25T12:09:30.193Z,1008.78